sensor_id;sensor_type;location;lat;lon;timestamp;P1;durP1;ratioP1;P2;durP2;ratioP2
40591;SDS011;26301;42.832;23.918;2023-07-02T00:02:10;15.43;;;9.23;;
40591;SDS011;26301;42.832;23.918;2023-07-02T00:04:36;13.65;;;8.63;;
40591;SDS011;26301;42.832;23.918;2023-07-02T00:07:02;12.55;;;8.98;;
40591;SDS011;26301;42.832;23.918;2023-07-02T00:09:30;11.75;;;8.48;;
40591;SDS011;26301;42.832;23.918;2023-07-02T00:11:57;15.20;;;9.85;;
40591;SDS011;26301;42.832;23.918;2023-07-02T00:14:27;14.38;;;9.40;;
40591;SDS011;26301;42.832;23.918;2023-07-02T00:16:53;14.55;;;8.93;;
40591;SDS011;26301;42.832;23.918;2023-07-02T00:19:20;13.40;;;8.73;;
40591;SDS011;26301;42.832;23.918;2023-07-02T00:21:46;12.18;;;9.13;;
40591;SDS011;26301;42.832;23.918;2023-07-02T00:24:13;12.43;;;8.63;;
40591;SDS011;26301;42.832;23.918;2023-07-02T00:26:41;13.57;;;9.40;;
40591;SDS011;26301;42.832;23.918;2023-07-02T00:29:07;10.75;;;8.38;;
40591;SDS011;26301;42.832;23.918;2023-07-02T00:31:36;14.30;;;9.60;;
40591;SDS011;26301;42.832;23.918;2023-07-02T00:34:03;13.38;;;8.63;;
40591;SDS011;26301;42.832;23.918;2023-07-02T00:36:29;12.27;;;8.75;;
40591;SDS011;26301;42.832;23.918;2023-07-02T00:38:56;15.40;;;9.15;;
40591;SDS011;26301;42.832;23.918;2023-07-02T00:41:23;12.57;;;9.63;;
40591;SDS011;26301;42.832;23.918;2023-07-02T00:43:49;13.63;;;9.30;;
40591;SDS011;26301;42.832;23.918;2023-07-02T00:46:20;12.70;;;9.60;;
40591;SDS011;26301;42.832;23.918;2023-07-02T00:48:51;13.88;;;9.30;;
40591;SDS011;26301;42.832;23.918;2023-07-02T00:51:19;15.30;;;9.00;;
40591;SDS011;26301;42.832;23.918;2023-07-02T00:53:49;14.85;;;9.57;;
40591;SDS011;26301;42.832;23.918;2023-07-02T00:56:16;14.05;;;9.77;;
40591;SDS011;26301;42.832;23.918;2023-07-02T00:58:43;13.20;;;8.88;;
40591;SDS011;26301;42.832;23.918;2023-07-02T01:01:22;14.05;;;9.00;;
40591;SDS011;26301;42.832;23.918;2023-07-02T01:04:03;11.50;;;8.73;;
40591;SDS011;26301;42.832;23.918;2023-07-02T01:06:31;13.90;;;8.93;;
40591;SDS011;26301;42.832;23.918;2023-07-02T01:08:59;14.48;;;9.25;;
40591;SDS011;26301;42.832;23.918;2023-07-02T01:11:40;12.13;;;8.55;;
40591;SDS011;26301;42.832;23.918;2023-07-02T01:16:42;11.52;;;8.23;;
40591;SDS011;26301;42.832;23.918;2023-07-02T01:19:15;11.85;;;9.35;;
40591;SDS011;26301;42.832;23.918;2023-07-02T01:21:46;13.05;;;8.77;;
40591;SDS011;26301;42.832;23.918;2023-07-02T01:24:13;14.68;;;8.80;;
40591;SDS011;26301;42.832;23.918;2023-07-02T01:26:39;15.60;;;9.15;;
40591;SDS011;26301;42.832;23.918;2023-07-02T01:29:16;19.35;;;9.70;;
40591;SDS011;26301;42.832;23.918;2023-07-02T01:31:43;14.88;;;9.15;;
40591;SDS011;26301;42.832;23.918;2023-07-02T01:34:10;18.65;;;9.63;;
40591;SDS011;26301;42.832;23.918;2023-07-02T01:36:36;16.13;;;9.80;;
40591;SDS011;26301;42.832;23.918;2023-07-02T01:39:03;11.18;;;9.18;;
40591;SDS011;26301;42.832;23.918;2023-07-02T01:41:29;12.00;;;9.15;;
40591;SDS011;26301;42.832;23.918;2023-07-02T01:43:55;12.85;;;8.32;;
40591;SDS011;26301;42.832;23.918;2023-07-02T01:46:21;12.43;;;9.23;;
40591;SDS011;26301;42.832;23.918;2023-07-02T01:48:47;12.27;;;8.25;;
40591;SDS011;26301;42.832;23.918;2023-07-02T01:51:13;13.88;;;9.10;;
40591;SDS011;26301;42.832;23.918;2023-07-02T01:53:40;12.07;;;7.43;;
40591;SDS011;26301;42.832;23.918;2023-07-02T01:56:07;10.60;;;8.50;;
40591;SDS011;26301;42.832;23.918;2023-07-02T01:58:33;13.05;;;8.45;;
40591;SDS011;26301;42.832;23.918;2023-07-02T02:00:59;13.02;;;8.15;;
40591;SDS011;26301;42.832;23.918;2023-07-02T02:03:25;11.43;;;8.27;;
40591;SDS011;26301;42.832;23.918;2023-07-02T02:05:51;15.18;;;8.50;;
40591;SDS011;26301;42.832;23.918;2023-07-02T02:08:17;12.90;;;8.40;;
40591;SDS011;26301;42.832;23.918;2023-07-02T02:10:43;14.07;;;9.18;;
40591;SDS011;26301;42.832;23.918;2023-07-02T02:13:11;15.18;;;8.75;;
40591;SDS011;26301;42.832;23.918;2023-07-02T02:15:37;12.52;;;8.38;;
40591;SDS011;26301;42.832;23.918;2023-07-02T02:18:03;14.57;;;8.93;;
40591;SDS011;26301;42.832;23.918;2023-07-02T02:20:32;11.50;;;8.13;;
40591;SDS011;26301;42.832;23.918;2023-07-02T02:23:01;15.63;;;8.23;;
40591;SDS011;26301;42.832;23.918;2023-07-02T02:25:27;14.20;;;7.93;;
40591;SDS011;26301;42.832;23.918;2023-07-02T02:27:53;11.98;;;8.65;;
40591;SDS011;26301;42.832;23.918;2023-07-02T02:30:20;12.55;;;8.30;;
40591;SDS011;26301;42.832;23.918;2023-07-02T02:32:46;9.30;;;7.55;;
40591;SDS011;26301;42.832;23.918;2023-07-02T02:35:14;13.25;;;7.03;;
40591;SDS011;26301;42.832;23.918;2023-07-02T02:37:40;9.18;;;6.97;;
40591;SDS011;26301;42.832;23.918;2023-07-02T02:40:09;8.15;;;6.75;;
40591;SDS011;26301;42.832;23.918;2023-07-02T02:42:36;9.13;;;6.95;;
40591;SDS011;26301;42.832;23.918;2023-07-02T02:45:02;10.55;;;7.10;;
40591;SDS011;26301;42.832;23.918;2023-07-02T02:47:29;13.13;;;7.97;;
40591;SDS011;26301;42.832;23.918;2023-07-02T02:49:55;10.70;;;7.63;;
40591;SDS011;26301;42.832;23.918;2023-07-02T02:52:22;10.68;;;8.00;;
40591;SDS011;26301;42.832;23.918;2023-07-02T02:54:49;13.68;;;7.80;;
40591;SDS011;26301;42.832;23.918;2023-07-02T02:57:18;11.73;;;8.20;;
40591;SDS011;26301;42.832;23.918;2023-07-02T02:59:44;11.75;;;8.13;;
40591;SDS011;26301;42.832;23.918;2023-07-02T03:02:11;11.88;;;8.63;;
40591;SDS011;26301;42.832;23.918;2023-07-02T03:04:37;11.25;;;7.85;;
40591;SDS011;26301;42.832;23.918;2023-07-02T03:07:05;11.68;;;7.68;;
40591;SDS011;26301;42.832;23.918;2023-07-02T03:09:32;12.60;;;7.75;;
40591;SDS011;26301;42.832;23.918;2023-07-02T03:11:59;9.60;;;7.55;;
40591;SDS011;26301;42.832;23.918;2023-07-02T03:14:27;12.40;;;8.25;;
40591;SDS011;26301;42.832;23.918;2023-07-02T03:16:53;12.52;;;7.80;;
40591;SDS011;26301;42.832;23.918;2023-07-02T03:19:19;11.70;;;7.75;;
40591;SDS011;26301;42.832;23.918;2023-07-02T03:21:45;12.40;;;7.35;;
40591;SDS011;26301;42.832;23.918;2023-07-02T03:24:12;11.10;;;7.82;;
40591;SDS011;26301;42.832;23.918;2023-07-02T03:26:41;16.00;;;7.72;;
40591;SDS011;26301;42.832;23.918;2023-07-02T03:29:07;9.35;;;7.50;;
40591;SDS011;26301;42.832;23.918;2023-07-02T03:31:33;12.75;;;7.85;;
40591;SDS011;26301;42.832;23.918;2023-07-02T03:34:03;13.90;;;7.50;;
40591;SDS011;26301;42.832;23.918;2023-07-02T03:36:35;12.63;;;7.82;;
40591;SDS011;26301;42.832;23.918;2023-07-02T03:39:01;11.60;;;7.63;;
40591;SDS011;26301;42.832;23.918;2023-07-02T03:41:28;12.20;;;7.95;;
40591;SDS011;26301;42.832;23.918;2023-07-02T03:43:55;12.90;;;7.38;;
40591;SDS011;26301;42.832;23.918;2023-07-02T03:46:21;14.32;;;7.38;;
40591;SDS011;26301;42.832;23.918;2023-07-02T03:48:47;15.23;;;7.45;;
40591;SDS011;26301;42.832;23.918;2023-07-02T03:51:13;11.48;;;7.90;;
40591;SDS011;26301;42.832;23.918;2023-07-02T03:53:40;12.95;;;7.97;;
40591;SDS011;26301;42.832;23.918;2023-07-02T03:56:06;15.65;;;10.38;;
40591;SDS011;26301;42.832;23.918;2023-07-02T03:58:32;12.95;;;8.45;;
40591;SDS011;26301;42.832;23.918;2023-07-02T04:00:59;16.83;;;12.00;;
40591;SDS011;26301;42.832;23.918;2023-07-02T04:03:25;14.48;;;9.35;;
40591;SDS011;26301;42.832;23.918;2023-07-02T04:05:51;16.27;;;9.63;;
40591;SDS011;26301;42.832;23.918;2023-07-02T04:08:17;15.10;;;11.68;;
40591;SDS011;26301;42.832;23.918;2023-07-02T04:10:46;17.23;;;12.50;;
40591;SDS011;26301;42.832;23.918;2023-07-02T04:13:12;15.65;;;9.55;;
40591;SDS011;26301;42.832;23.918;2023-07-02T04:15:38;12.60;;;9.60;;
40591;SDS011;26301;42.832;23.918;2023-07-02T04:18:04;15.02;;;10.40;;
40591;SDS011;26301;42.832;23.918;2023-07-02T04:20:30;10.63;;;8.15;;
40591;SDS011;26301;42.832;23.918;2023-07-02T04:22:56;10.75;;;8.43;;
40591;SDS011;26301;42.832;23.918;2023-07-02T04:25:22;9.20;;;6.22;;
40591;SDS011;26301;42.832;23.918;2023-07-02T04:27:48;8.68;;;6.20;;
40591;SDS011;26301;42.832;23.918;2023-07-02T04:30:16;11.00;;;6.90;;
40591;SDS011;26301;42.832;23.918;2023-07-02T04:32:42;9.30;;;5.78;;
40591;SDS011;26301;42.832;23.918;2023-07-02T04:35:09;9.30;;;5.35;;
40591;SDS011;26301;42.832;23.918;2023-07-02T04:37:36;8.25;;;5.72;;
40591;SDS011;26301;42.832;23.918;2023-07-02T04:40:02;9.68;;;5.07;;
40591;SDS011;26301;42.832;23.918;2023-07-02T04:42:32;7.00;;;5.18;;
40591;SDS011;26301;42.832;23.918;2023-07-02T04:45:00;8.45;;;5.40;;
40591;SDS011;26301;42.832;23.918;2023-07-02T04:47:28;13.30;;;5.38;;
40591;SDS011;26301;42.832;23.918;2023-07-02T04:49:55;12.10;;;5.07;;
40591;SDS011;26301;42.832;23.918;2023-07-02T04:52:21;7.72;;;5.18;;
40591;SDS011;26301;42.832;23.918;2023-07-02T04:54:47;7.03;;;4.55;;
40591;SDS011;26301;42.832;23.918;2023-07-02T04:57:13;7.75;;;4.50;;
40591;SDS011;26301;42.832;23.918;2023-07-02T04:59:41;11.05;;;5.20;;
40591;SDS011;26301;42.832;23.918;2023-07-02T05:02:07;10.65;;;5.03;;
40591;SDS011;26301;42.832;23.918;2023-07-02T05:04:33;7.85;;;5.40;;
40591;SDS011;26301;42.832;23.918;2023-07-02T05:07:00;9.43;;;5.78;;
40591;SDS011;26301;42.832;23.918;2023-07-02T05:09:26;8.32;;;5.75;;
40591;SDS011;26301;42.832;23.918;2023-07-02T05:11:52;9.90;;;5.30;;
40591;SDS011;26301;42.832;23.918;2023-07-02T05:14:19;6.68;;;5.18;;
40591;SDS011;26301;42.832;23.918;2023-07-02T05:16:45;9.05;;;5.70;;
40591;SDS011;26301;42.832;23.918;2023-07-02T05:19:11;11.68;;;4.80;;
40591;SDS011;26301;42.832;23.918;2023-07-02T05:21:37;11.82;;;5.05;;
40591;SDS011;26301;42.832;23.918;2023-07-02T05:24:03;8.38;;;4.88;;
40591;SDS011;26301;42.832;23.918;2023-07-02T05:26:29;10.02;;;4.70;;
40591;SDS011;26301;42.832;23.918;2023-07-02T05:28:55;7.65;;;5.13;;
40591;SDS011;26301;42.832;23.918;2023-07-02T05:31:21;7.47;;;4.97;;
40591;SDS011;26301;42.832;23.918;2023-07-02T05:33:47;6.03;;;4.63;;
40591;SDS011;26301;42.832;23.918;2023-07-02T05:36:14;12.82;;;6.43;;
40591;SDS011;26301;42.832;23.918;2023-07-02T05:38:39;13.57;;;8.93;;
40591;SDS011;26301;42.832;23.918;2023-07-02T05:41:06;11.90;;;8.27;;
40591;SDS011;26301;42.832;23.918;2023-07-02T05:43:32;10.95;;;5.97;;
40591;SDS011;26301;42.832;23.918;2023-07-02T05:45:58;8.70;;;7.35;;
40591;SDS011;26301;42.832;23.918;2023-07-02T05:48:27;10.88;;;6.95;;
40591;SDS011;26301;42.832;23.918;2023-07-02T05:50:54;8.32;;;6.15;;
40591;SDS011;26301;42.832;23.918;2023-07-02T05:53:20;9.45;;;5.60;;
40591;SDS011;26301;42.832;23.918;2023-07-02T05:55:47;8.20;;;5.15;;
40591;SDS011;26301;42.832;23.918;2023-07-02T05:58:13;8.95;;;5.45;;
40591;SDS011;26301;42.832;23.918;2023-07-02T06:00:39;8.80;;;5.00;;
40591;SDS011;26301;42.832;23.918;2023-07-02T06:03:07;8.40;;;4.93;;
40591;SDS011;26301;42.832;23.918;2023-07-02T06:05:33;9.10;;;5.15;;
40591;SDS011;26301;42.832;23.918;2023-07-02T06:07:59;5.55;;;4.68;;
40591;SDS011;26301;42.832;23.918;2023-07-02T06:10:25;7.20;;;5.03;;
40591;SDS011;26301;42.832;23.918;2023-07-02T06:12:51;7.90;;;5.10;;
40591;SDS011;26301;42.832;23.918;2023-07-02T06:15:17;8.43;;;5.15;;
40591;SDS011;26301;42.832;23.918;2023-07-02T06:17:43;7.68;;;4.65;;
40591;SDS011;26301;42.832;23.918;2023-07-02T06:20:09;6.47;;;4.63;;
40591;SDS011;26301;42.832;23.918;2023-07-02T06:22:36;6.30;;;4.30;;
40591;SDS011;26301;42.832;23.918;2023-07-02T06:25:02;8.38;;;4.85;;
40591;SDS011;26301;42.832;23.918;2023-07-02T06:27:29;13.25;;;6.95;;
40591;SDS011;26301;42.832;23.918;2023-07-02T06:29:58;10.52;;;6.72;;
40591;SDS011;26301;42.832;23.918;2023-07-02T06:32:24;17.02;;;8.90;;
40591;SDS011;26301;42.832;23.918;2023-07-02T06:34:53;19.90;;;13.38;;
40591;SDS011;26301;42.832;23.918;2023-07-02T06:37:22;10.60;;;5.55;;
40591;SDS011;26301;42.832;23.918;2023-07-02T06:39:48;7.75;;;4.53;;
40591;SDS011;26301;42.832;23.918;2023-07-02T06:42:14;6.43;;;4.20;;
40591;SDS011;26301;42.832;23.918;2023-07-02T06:44:40;6.28;;;5.10;;
40591;SDS011;26301;42.832;23.918;2023-07-02T06:47:06;9.63;;;4.40;;
40591;SDS011;26301;42.832;23.918;2023-07-02T06:49:32;6.72;;;3.72;;
40591;SDS011;26301;42.832;23.918;2023-07-02T06:51:58;8.25;;;4.43;;
40591;SDS011;26301;42.832;23.918;2023-07-02T06:54:28;6.25;;;3.90;;
40591;SDS011;26301;42.832;23.918;2023-07-02T06:56:54;8.23;;;4.45;;
40591;SDS011;26301;42.832;23.918;2023-07-02T06:59:33;5.35;;;3.38;;
40591;SDS011;26301;42.832;23.918;2023-07-02T07:02:02;5.65;;;4.22;;
40591;SDS011;26301;42.832;23.918;2023-07-02T07:04:29;7.32;;;4.30;;
40591;SDS011;26301;42.832;23.918;2023-07-02T07:06:55;6.40;;;4.32;;
40591;SDS011;26301;42.832;23.918;2023-07-02T07:09:21;5.50;;;3.55;;
40591;SDS011;26301;42.832;23.918;2023-07-02T07:11:48;5.10;;;3.70;;
40591;SDS011;26301;42.832;23.918;2023-07-02T07:14:14;5.20;;;3.50;;
40591;SDS011;26301;42.832;23.918;2023-07-02T07:16:40;6.47;;;3.28;;
40591;SDS011;26301;42.832;23.918;2023-07-02T07:19:06;4.35;;;2.83;;
40591;SDS011;26301;42.832;23.918;2023-07-02T07:21:35;5.18;;;3.10;;
40591;SDS011;26301;42.832;23.918;2023-07-02T07:24:01;3.33;;;2.22;;
40591;SDS011;26301;42.832;23.918;2023-07-02T07:26:27;4.25;;;2.58;;
40591;SDS011;26301;42.832;23.918;2023-07-02T07:28:53;4.30;;;2.60;;
40591;SDS011;26301;42.832;23.918;2023-07-02T07:31:23;5.38;;;2.40;;
40591;SDS011;26301;42.832;23.918;2023-07-02T07:33:50;4.22;;;2.80;;
40591;SDS011;26301;42.832;23.918;2023-07-02T07:36:20;3.40;;;2.40;;
40591;SDS011;26301;42.832;23.918;2023-07-02T07:38:46;4.22;;;2.33;;
40591;SDS011;26301;42.832;23.918;2023-07-02T07:41:12;3.90;;;2.50;;
40591;SDS011;26301;42.832;23.918;2023-07-02T07:43:38;5.03;;;2.60;;
40591;SDS011;26301;42.832;23.918;2023-07-02T07:46:05;3.85;;;2.70;;
40591;SDS011;26301;42.832;23.918;2023-07-02T07:48:31;3.88;;;2.40;;
40591;SDS011;26301;42.832;23.918;2023-07-02T07:50:57;3.65;;;2.35;;
40591;SDS011;26301;42.832;23.918;2023-07-02T07:53:25;4.13;;;2.42;;
40591;SDS011;26301;42.832;23.918;2023-07-02T07:55:51;3.63;;;2.67;;
40591;SDS011;26301;42.832;23.918;2023-07-02T07:58:17;4.90;;;2.30;;
40591;SDS011;26301;42.832;23.918;2023-07-02T08:00:44;3.30;;;2.22;;
40591;SDS011;26301;42.832;23.918;2023-07-02T08:03:10;3.70;;;2.58;;
40591;SDS011;26301;42.832;23.918;2023-07-02T08:05:39;4.03;;;2.63;;
40591;SDS011;26301;42.832;23.918;2023-07-02T08:08:05;3.45;;;2.58;;
40591;SDS011;26301;42.832;23.918;2023-07-02T08:10:33;4.90;;;2.75;;
40591;SDS011;26301;42.832;23.918;2023-07-02T08:12:59;4.90;;;3.17;;
40591;SDS011;26301;42.832;23.918;2023-07-02T08:15:27;5.25;;;3.13;;
40591;SDS011;26301;42.832;23.918;2023-07-02T08:17:55;5.13;;;3.15;;
40591;SDS011;26301;42.832;23.918;2023-07-02T08:20:23;4.82;;;3.17;;
40591;SDS011;26301;42.832;23.918;2023-07-02T08:22:49;8.18;;;3.72;;
40591;SDS011;26301;42.832;23.918;2023-07-02T08:25:18;6.25;;;3.40;;
40591;SDS011;26301;42.832;23.918;2023-07-02T08:27:46;4.15;;;2.80;;
40591;SDS011;26301;42.832;23.918;2023-07-02T08:30:12;5.32;;;3.10;;
40591;SDS011;26301;42.832;23.918;2023-07-02T08:32:38;5.60;;;3.55;;
40591;SDS011;26301;42.832;23.918;2023-07-02T08:35:05;6.15;;;3.30;;
40591;SDS011;26301;42.832;23.918;2023-07-02T08:37:32;7.25;;;3.97;;
40591;SDS011;26301;42.832;23.918;2023-07-02T08:39:58;4.47;;;3.22;;
40591;SDS011;26301;42.832;23.918;2023-07-02T08:42:24;6.00;;;3.50;;
40591;SDS011;26301;42.832;23.918;2023-07-02T08:44:54;4.78;;;3.10;;
40591;SDS011;26301;42.832;23.918;2023-07-02T08:47:22;5.40;;;2.78;;
40591;SDS011;26301;42.832;23.918;2023-07-02T08:49:49;4.95;;;3.33;;
40591;SDS011;26301;42.832;23.918;2023-07-02T08:52:15;6.70;;;3.92;;
40591;SDS011;26301;42.832;23.918;2023-07-02T08:54:41;5.85;;;3.75;;
40591;SDS011;26301;42.832;23.918;2023-07-02T08:57:09;5.53;;;3.72;;
40591;SDS011;26301;42.832;23.918;2023-07-02T08:59:38;6.40;;;4.70;;
40591;SDS011;26301;42.832;23.918;2023-07-02T09:02:04;5.70;;;3.67;;
40591;SDS011;26301;42.832;23.918;2023-07-02T09:04:30;5.88;;;4.20;;
40591;SDS011;26301;42.832;23.918;2023-07-02T09:07:07;7.18;;;3.80;;
40591;SDS011;26301;42.832;23.918;2023-07-02T09:09:46;5.00;;;3.88;;
40591;SDS011;26301;42.832;23.918;2023-07-02T09:12:27;5.43;;;4.03;;
40591;SDS011;26301;42.832;23.918;2023-07-02T09:14:55;5.90;;;4.20;;
40591;SDS011;26301;42.832;23.918;2023-07-02T09:17:26;5.00;;;3.72;;
40591;SDS011;26301;42.832;23.918;2023-07-02T09:19:56;6.38;;;4.00;;
40591;SDS011;26301;42.832;23.918;2023-07-02T09:22:26;7.30;;;5.00;;
40591;SDS011;26301;42.832;23.918;2023-07-02T09:24:53;10.18;;;5.70;;
40591;SDS011;26301;42.832;23.918;2023-07-02T09:27:20;6.07;;;4.38;;
40591;SDS011;26301;42.832;23.918;2023-07-02T09:30:14;6.00;;;3.53;;
40591;SDS011;26301;42.832;23.918;2023-07-02T09:32:42;6.18;;;4.25;;
40591;SDS011;26301;42.832;23.918;2023-07-02T09:35:14;5.43;;;3.78;;
40591;SDS011;26301;42.832;23.918;2023-07-02T09:37:46;5.35;;;3.70;;
40591;SDS011;26301;42.832;23.918;2023-07-02T09:40:21;6.25;;;3.80;;
40591;SDS011;26301;42.832;23.918;2023-07-02T09:42:50;5.60;;;3.92;;
40591;SDS011;26301;42.832;23.918;2023-07-02T09:45:17;5.97;;;3.90;;
40591;SDS011;26301;42.832;23.918;2023-07-02T09:47:46;6.50;;;4.43;;
40591;SDS011;26301;42.832;23.918;2023-07-02T09:50:14;5.78;;;4.03;;
40591;SDS011;26301;42.832;23.918;2023-07-02T09:52:45;7.50;;;4.50;;
40591;SDS011;26301;42.832;23.918;2023-07-02T09:55:14;7.80;;;4.53;;
40591;SDS011;26301;42.832;23.918;2023-07-02T09:57:40;6.38;;;3.97;;
40591;SDS011;26301;42.832;23.918;2023-07-02T10:00:09;6.47;;;4.45;;
40591;SDS011;26301;42.832;23.918;2023-07-02T10:02:36;5.13;;;3.85;;
40591;SDS011;26301;42.832;23.918;2023-07-02T10:05:03;6.20;;;4.10;;
40591;SDS011;26301;42.832;23.918;2023-07-02T10:07:31;5.85;;;4.28;;
40591;SDS011;26301;42.832;23.918;2023-07-02T10:09:58;6.38;;;4.85;;
40591;SDS011;26301;42.832;23.918;2023-07-02T10:12:28;5.60;;;4.22;;
40591;SDS011;26301;42.832;23.918;2023-07-02T10:14:56;8.05;;;5.53;;
40591;SDS011;26301;42.832;23.918;2023-07-02T10:17:27;14.88;;;8.82;;
40591;SDS011;26301;42.832;23.918;2023-07-02T10:19:55;11.00;;;6.63;;
40591;SDS011;26301;42.832;23.918;2023-07-02T10:22:22;11.73;;;6.03;;
40591;SDS011;26301;42.832;23.918;2023-07-02T10:24:55;10.25;;;6.30;;
40591;SDS011;26301;42.832;23.918;2023-07-02T10:27:41;11.05;;;6.47;;
40591;SDS011;26301;42.832;23.918;2023-07-02T10:30:09;7.68;;;5.32;;
40591;SDS011;26301;42.832;23.918;2023-07-02T10:32:36;10.05;;;4.90;;
40591;SDS011;26301;42.832;23.918;2023-07-02T10:38:01;6.97;;;4.32;;
40591;SDS011;26301;42.832;23.918;2023-07-02T10:40:27;7.57;;;4.15;;
40591;SDS011;26301;42.832;23.918;2023-07-02T10:42:54;9.38;;;4.72;;
40591;SDS011;26301;42.832;23.918;2023-07-02T10:45:30;5.50;;;4.30;;
40591;SDS011;26301;42.832;23.918;2023-07-02T10:47:57;7.00;;;4.35;;
40591;SDS011;26301;42.832;23.918;2023-07-02T10:50:27;7.82;;;4.40;;
40591;SDS011;26301;42.832;23.918;2023-07-02T10:52:53;6.07;;;4.78;;
40591;SDS011;26301;42.832;23.918;2023-07-02T10:55:19;6.78;;;4.65;;
40591;SDS011;26301;42.832;23.918;2023-07-02T10:57:47;9.23;;;4.78;;
40591;SDS011;26301;42.832;23.918;2023-07-02T11:00:15;6.63;;;4.07;;
40591;SDS011;26301;42.832;23.918;2023-07-02T11:02:42;7.28;;;5.10;;
40591;SDS011;26301;42.832;23.918;2023-07-02T11:05:09;6.55;;;4.57;;
40591;SDS011;26301;42.832;23.918;2023-07-02T11:07:40;6.20;;;4.75;;
40591;SDS011;26301;42.832;23.918;2023-07-02T11:10:07;7.57;;;5.03;;
40591;SDS011;26301;42.832;23.918;2023-07-02T11:12:34;6.60;;;4.90;;
40591;SDS011;26301;42.832;23.918;2023-07-02T11:15:14;6.38;;;5.13;;
40591;SDS011;26301;42.832;23.918;2023-07-02T11:17:40;11.43;;;4.75;;
40591;SDS011;26301;42.832;23.918;2023-07-02T11:20:08;6.88;;;4.97;;
40591;SDS011;26301;42.832;23.918;2023-07-02T11:22:35;7.20;;;4.90;;
40591;SDS011;26301;42.832;23.918;2023-07-02T11:25:18;9.88;;;5.05;;
40591;SDS011;26301;42.832;23.918;2023-07-02T11:27:48;7.20;;;4.70;;
40591;SDS011;26301;42.832;23.918;2023-07-02T11:30:14;5.82;;;4.60;;
40591;SDS011;26301;42.832;23.918;2023-07-02T11:32:47;7.03;;;4.90;;
40591;SDS011;26301;42.832;23.918;2023-07-02T11:35:14;9.60;;;5.10;;
40591;SDS011;26301;42.832;23.918;2023-07-02T11:37:41;8.15;;;4.82;;
40591;SDS011;26301;42.832;23.918;2023-07-02T11:40:08;6.28;;;4.82;;
40591;SDS011;26301;42.832;23.918;2023-07-02T11:42:37;7.97;;;5.50;;
40591;SDS011;26301;42.832;23.918;2023-07-02T11:45:03;7.85;;;6.40;;
40591;SDS011;26301;42.832;23.918;2023-07-02T11:47:32;7.97;;;4.90;;
40591;SDS011;26301;42.832;23.918;2023-07-02T11:50:07;7.15;;;4.82;;
40591;SDS011;26301;42.832;23.918;2023-07-02T11:52:33;6.53;;;5.07;;
40591;SDS011;26301;42.832;23.918;2023-07-02T11:55:00;7.07;;;5.00;;
40591;SDS011;26301;42.832;23.918;2023-07-02T11:57:26;6.90;;;5.13;;
40591;SDS011;26301;42.832;23.918;2023-07-02T11:59:52;7.60;;;5.18;;
40591;SDS011;26301;42.832;23.918;2023-07-02T12:02:18;7.10;;;4.75;;
40591;SDS011;26301;42.832;23.918;2023-07-02T12:04:44;6.75;;;5.35;;
40591;SDS011;26301;42.832;23.918;2023-07-02T12:07:10;7.80;;;5.07;;
40591;SDS011;26301;42.832;23.918;2023-07-02T12:09:38;9.25;;;5.30;;
40591;SDS011;26301;42.832;23.918;2023-07-02T12:12:05;6.65;;;4.90;;
40591;SDS011;26301;42.832;23.918;2023-07-02T12:14:31;6.45;;;5.00;;
40591;SDS011;26301;42.832;23.918;2023-07-02T12:16:57;6.65;;;5.40;;
40591;SDS011;26301;42.832;23.918;2023-07-02T12:19:24;11.77;;;5.70;;
40591;SDS011;26301;42.832;23.918;2023-07-02T12:21:50;7.82;;;5.40;;
40591;SDS011;26301;42.832;23.918;2023-07-02T12:24:16;9.30;;;5.70;;
40591;SDS011;26301;42.832;23.918;2023-07-02T12:26:42;6.30;;;5.05;;
40591;SDS011;26301;42.832;23.918;2023-07-02T12:29:09;6.10;;;4.97;;
40591;SDS011;26301;42.832;23.918;2023-07-02T12:31:35;7.22;;;5.70;;
40591;SDS011;26301;42.832;23.918;2023-07-02T12:34:01;6.28;;;5.15;;
40591;SDS011;26301;42.832;23.918;2023-07-02T12:36:28;6.40;;;5.63;;
40591;SDS011;26301;42.832;23.918;2023-07-02T12:38:55;8.55;;;5.53;;
40591;SDS011;26301;42.832;23.918;2023-07-02T12:41:21;6.57;;;5.13;;
40591;SDS011;26301;42.832;23.918;2023-07-02T12:43:48;9.18;;;6.30;;
40591;SDS011;26301;42.832;23.918;2023-07-02T12:46:14;8.73;;;5.60;;
40591;SDS011;26301;42.832;23.918;2023-07-02T12:48:40;11.18;;;5.13;;
40591;SDS011;26301;42.832;23.918;2023-07-02T12:51:06;9.07;;;5.45;;
40591;SDS011;26301;42.832;23.918;2023-07-02T12:53:32;8.40;;;5.38;;
40591;SDS011;26301;42.832;23.918;2023-07-02T12:55:58;13.45;;;7.10;;
40591;SDS011;26301;42.832;23.918;2023-07-02T12:58:25;7.80;;;5.55;;
40591;SDS011;26301;42.832;23.918;2023-07-02T13:00:51;8.40;;;5.60;;
40591;SDS011;26301;42.832;23.918;2023-07-02T13:03:17;7.80;;;5.82;;
40591;SDS011;26301;42.832;23.918;2023-07-02T13:05:43;7.00;;;5.82;;
40591;SDS011;26301;42.832;23.918;2023-07-02T13:08:10;8.07;;;5.50;;
40591;SDS011;26301;42.832;23.918;2023-07-02T13:10:36;8.30;;;5.90;;
40591;SDS011;26301;42.832;23.918;2023-07-02T13:13:02;9.30;;;5.97;;
40591;SDS011;26301;42.832;23.918;2023-07-02T13:15:28;7.93;;;6.22;;
40591;SDS011;26301;42.832;23.918;2023-07-02T13:17:55;8.50;;;6.03;;
40591;SDS011;26301;42.832;23.918;2023-07-02T13:20:21;8.50;;;6.15;;
40591;SDS011;26301;42.832;23.918;2023-07-02T13:22:47;10.02;;;6.35;;
40591;SDS011;26301;42.832;23.918;2023-07-02T13:25:13;8.38;;;6.38;;
40591;SDS011;26301;42.832;23.918;2023-07-02T13:27:42;10.63;;;6.07;;
40591;SDS011;26301;42.832;23.918;2023-07-02T13:30:08;8.38;;;5.97;;
40591;SDS011;26301;42.832;23.918;2023-07-02T13:32:35;8.60;;;6.53;;
40591;SDS011;26301;42.832;23.918;2023-07-02T13:35:01;10.25;;;6.55;;
40591;SDS011;26301;42.832;23.918;2023-07-02T13:37:28;9.02;;;6.63;;
40591;SDS011;26301;42.832;23.918;2023-07-02T13:39:54;8.38;;;6.70;;
40591;SDS011;26301;42.832;23.918;2023-07-02T13:42:20;7.80;;;6.50;;
40591;SDS011;26301;42.832;23.918;2023-07-02T13:44:46;9.07;;;6.75;;
40591;SDS011;26301;42.832;23.918;2023-07-02T13:47:16;10.30;;;6.28;;
40591;SDS011;26301;42.832;23.918;2023-07-02T13:49:42;9.50;;;6.88;;
40591;SDS011;26301;42.832;23.918;2023-07-02T13:52:09;8.88;;;6.40;;
40591;SDS011;26301;42.832;23.918;2023-07-02T13:54:35;12.52;;;6.45;;
40591;SDS011;26301;42.832;23.918;2023-07-02T13:57:06;9.90;;;6.97;;
40591;SDS011;26301;42.832;23.918;2023-07-02T13:59:32;9.30;;;6.10;;
40591;SDS011;26301;42.832;23.918;2023-07-02T14:01:58;8.48;;;6.07;;
40591;SDS011;26301;42.832;23.918;2023-07-02T14:04:24;11.80;;;6.78;;
40591;SDS011;26301;42.832;23.918;2023-07-02T14:06:51;9.50;;;5.82;;
40591;SDS011;26301;42.832;23.918;2023-07-02T14:09:19;10.93;;;6.65;;
40591;SDS011;26301;42.832;23.918;2023-07-02T14:11:45;8.68;;;6.45;;
40591;SDS011;26301;42.832;23.918;2023-07-02T14:14:11;9.15;;;6.50;;
40591;SDS011;26301;42.832;23.918;2023-07-02T14:16:41;7.88;;;6.00;;
40591;SDS011;26301;42.832;23.918;2023-07-02T14:19:07;9.88;;;5.72;;
40591;SDS011;26301;42.832;23.918;2023-07-02T14:21:34;10.30;;;7.05;;
40591;SDS011;26301;42.832;23.918;2023-07-02T14:24:00;8.88;;;6.20;;
40591;SDS011;26301;42.832;23.918;2023-07-02T14:26:28;11.15;;;7.03;;
40591;SDS011;26301;42.832;23.918;2023-07-02T14:28:55;9.60;;;6.30;;
40591;SDS011;26301;42.832;23.918;2023-07-02T14:31:21;9.27;;;6.35;;
40591;SDS011;26301;42.832;23.918;2023-07-02T14:33:47;10.75;;;6.35;;
40591;SDS011;26301;42.832;23.918;2023-07-02T14:36:13;9.48;;;6.40;;